Latest Weather Observations for Lombadina

IDW60801

Issued at 8:23 am WST Thursday 21 June 2018 (issued every 10 minutes, with the page automatically refreshed every 10 minutes)

About weather observations | Map of weather stations | Latest weather observations for WA | Other Formats
Station Details ID: 503016 Name: LOMBADINA AIRSTRIP Lat: -16.52 Lon: 122.92 Height: 42.0 m
Data from the previous 72 hours. | See also: Recent months for locations in Western Australia
Date/Time
WST
Temp
°C
App
Temp
°C
Dew
Point
°C
Rel
Hum
%
Delta-T
°C
Wind Press
QNH
hPa
Press
MSL
hPa
Rain since
9am
mm
Dir  Spd
km/h
Gust
km/h
Spd
kts
Gust
kts
21/08:00am 20.1 16.4 6.1 40 7.0 SE 15 28 8 15 1017.6 1017.4 0.0
21/07:30am 19.3 15.7 5.0 39 7.0 SE 13 20 7 11 1017.5 1017.3 0.0
21/07:00am 18.6 14.9 4.4 39 6.8 SE 13 20 7 11 1017.2 1017.0 0.0
21/06:30am 17.9 14.3 3.0 37 6.9 SE 11 19 6 10 1017.0 1016.8 0.0
21/06:00am 18.1 14.2 1.2 32 7.5 SE 11 22 6 12 1016.8 1016.6 0.0
21/05:30am 18.5 14.5 0.6 30 7.9 SE 11 20 6 11 1016.5 1016.3 0.0
21/05:00am 18.8 14.8 0.4 29 8.1 SE 11 20 6 11 1016.5 1016.3 0.0
21/04:30am 19.1 15.0 -0.3 27 8.5 SE 11 24 6 13 1016.5 1016.3 0.0
21/04:00am 19.4 14.9 -0.6 26 8.7 SSE 13 24 7 13 1016.5 1016.3 0.0
21/03:30am 19.6 15.5 0.1 27 8.6 SSE 11 22 6 12 1016.7 1016.5 0.0
21/03:00am 19.5 15.3 -1.0 25 8.8 SSE 11 20 6 11 1016.7 1016.5 0.0
21/02:30am 20.0 15.8 -0.6 25 9.0 SE 11 20 6 11 1016.8 1016.6 0.0
21/02:00am 20.3 16.0 -1.5 23 9.4 SE 11 19 6 10 1017.0 1016.8 0.0
21/01:30am 20.7 16.4 -4.4 18 10.2 SE 9 15 5 8 1017.0 1016.8 0.0
21/01:00am 21.2 17.0 -4.0 18 10.4 SE 9 19 5 10 1017.1 1016.9 0.0
21/12:30am 21.5 17.4 -3.1 19 10.4 SE 9 19 5 10 1017.3 1017.1 0.0
21/12:00am 21.6 17.6 -2.3 20 10.2 SSE 9 17 5 9 1017.3 1017.1 0.0
 
Date/Time
WST
Temp
°C
App
Temp
°C
Dew
Point
°C
Rel
Hum
%
Delta-T
°C
Wind Press
QNH
hPa
Press
MSL
hPa
Rain since
9am
mm
Dir  Spd
km/h
Gust
km/h
Spd
kts
Gust
kts
20/11:30pm 21.9 17.9 -2.0 20 10.3 SSE 9 17 5 9 1017.3 1017.1 0.0
20/11:00pm 22.1 18.1 -1.9 20 10.4 SSE 9 17 5 9 1017.2 1017.0 0.0
20/10:30pm 22.3 18.4 -1.7 20 10.5 SSE 9 19 5 10 1017.4 1017.2 0.0
20/10:00pm 22.3 18.5 -1.1 21 10.3 SSE 9 15 5 8 1017.6 1017.4 0.0
20/09:30pm 22.9 19.1 -0.6 21 10.5 SSE 9 17 5 9 1017.7 1017.5 0.0
20/09:00pm 22.7 19.0 -0.1 22 10.3 SSE 9 19 5 10 1017.7 1017.5 0.0
20/08:30pm 22.6 19.3 0.4 23 10.1 SSE 7 13 4 7 1017.6 1017.4 0.0
20/08:00pm 23.1 19.9 0.9 23 10.2 SSE 7 15 4 8 1017.5 1017.3 0.0
20/07:30pm 23.8 20.3 1.4 23 10.5 SSE 9 19 5 10 1017.3 1017.1 0.0
20/07:00pm 23.9 21.0 2.7 25 10.2 SSE 7 13 4 7 1017.1 1016.9 0.0
20/06:30pm 22.5 20.2 5.0 32 8.7 SSE 6 9 3 5 1016.7 1016.5 0.0
20/06:00pm 23.2 21.2 6.1 33 8.7 SE 6 11 3 6 1016.2 1016.0 0.0
20/05:30pm 23.0 21.4 7.9 38 7.9 SE 6 7 3 4 1016.1 1015.9 0.0
20/05:00pm 25.5 23.3 6.2 29 10.0 SE 7 13 4 7 1015.7 1015.5 0.0
20/04:30pm 26.9 24.1 5.2 25 11.1 SE 9 17 5 9 1015.3 1015.1 0.0
20/04:00pm 27.2 23.7 3.7 22 11.8 SE 11 20 6 11 1015.2 1015.0 0.0
20/03:30pm 27.6 23.7 3.3 21 12.1 SE 13 24 7 13 1015.1 1014.9 0.0
20/03:00pm 27.4 23.6 3.8 22 11.8 SE 13 26 7 14 1015.2 1015.0 0.0
20/02:30pm 27.5 23.1 4.5 23 11.7 SE 17 30 9 16 1015.3 1015.1 0.0
20/02:00pm 26.8 22.0 4.6 24 11.3 SE 19 33 10 18 1015.2 1015.0 0.0
20/01:30pm 26.6 22.2 6.6 28 10.5 SE 19 35 10 19 1015.3 1015.1 0.0
20/01:00pm 26.2 22.2 8.2 32 9.7 SE 19 32 10 17 1015.3 1015.1 0.0
20/12:30pm 26.0 21.6 7.6 31 9.8 SE 20 35 11 19 1015.7 1015.5 0.0
20/12:00pm 25.2 20.7 6.9 31 9.6 SE 20 33 11 18 1016.2 1016.0 0.0
20/11:30am 24.8 21.0 9.1 37 8.5 SE 19 33 10 18 1016.6 1016.4 0.0
20/11:00am 24.9 20.7 7.5 33 9.2 SE 19 33 10 18 1016.9 1016.7 0.0
20/10:30am 24.5 20.9 10.0 40 8.0 SE 19 35 10 19 1017.5 1017.3 0.0
20/10:00am 23.5 19.5 9.1 40 7.8 SE 20 37 11 20 1017.8 1017.6 0.0
20/09:30am 23.2 19.4 8.9 40 7.7 SE 19 33 10 18 1018.2 1018.0 0.0
20/09:00am 22.5 18.2 7.9 39 7.6 SE 20 33 11 18 1018.4 1018.2 -
20/08:30am 22.0 18.9 8.9 43 7.0 SE 15 33 8 18 1018.5 1018.3 -
20/08:00am 21.0 17.9 8.9 46 6.4 SE 15 28 8 15 1018.4 1018.2 -
20/07:30am 20.3 17.5 8.6 47 6.1 SE 13 24 7 13 1018.3 1018.1 -
20/07:00am 19.3 16.4 8.0 48 5.8 SE 13 20 7 11 1018.2 1018.0 -
20/06:30am 19.1 16.3 8.7 51 5.4 SE 13 22 7 12 1018.0 1017.8 -
20/06:00am 19.1 16.7 9.9 55 4.9 SE 13 20 7 11 1017.4 1017.2 -
20/05:30am 18.7 16.6 9.8 56 4.7 SE 11 17 6 9 1017.3 1017.1 -
20/05:00am 18.8 16.6 9.3 54 5.0 SE 11 22 6 12 1017.2 1017.0 -
20/04:30am 19.0 16.6 8.6 51 5.4 SE 11 19 6 10 1017.4 1017.2 -
20/04:00am 19.1 16.6 8.1 49 5.7 SE 11 19 6 10 1017.3 1017.1 -
20/03:30am 19.2 16.8 8.5 50 5.6 SE 11 22 6 12 1017.1 1016.9 -
20/03:00am 19.6 17.4 9.5 52 5.4 SE 11 20 6 11 1017.1 1016.9 0.0
20/02:30am 19.5 17.9 10.2 55 5.0 SE 9 19 5 10 1017.3 1017.1 -
20/02:00am 19.9 18.2 10.0 53 5.3 SE 9 17 5 9 1017.3 1017.1 -
20/01:30am 20.2 18.5 9.7 51 5.6 SSE 9 17 5 9 1017.5 1017.3 -
20/01:00am 20.6 19.2 11.0 54 5.3 SSE 9 17 5 9 1017.6 1017.4 -
20/12:30am 17.2 18.5 16.1 93 0.7 S 4 7 2 4 1017.8 1017.6 -
20/12:00am 17.1 18.4 16.1 94 0.6 S 4 7 2 4 1017.8 1017.6 -
 
Date/Time
WST
Temp
°C
App
Temp
°C
Dew
Point
°C
Rel
Hum
%
Delta-T
°C
Wind Press
QNH
hPa
Press
MSL
hPa
Rain since
9am
mm
Dir  Spd
km/h
Gust
km/h
Spd
kts
Gust
kts
19/11:30pm 17.9 20.4 17.3 96 0.4 CALM 0 0 0 0 1017.6 1017.4 -
19/11:00pm 17.4 19.6 16.6 95 0.5 CALM 0 0 0 0 1017.8 1017.6 -
19/10:30pm 18.2 20.7 17.2 94 0.6 CALM 0 0 0 0 1017.6 1017.4 -
19/10:22pm 18.3 20.7 17.1 93 0.7 CALM 0 0 0 0 1017.7 1017.5 -
19/10:00pm 19.0 21.2 17.5 91 0.9 NNE 2 2 1 1 1017.7 1017.5 -
19/09:30pm 18.8 21.1 16.8 88 1.2 CALM 0 0 0 0 1017.8 1017.6 -
19/09:00pm 19.0 21.5 17.3 90 1.0 CALM 0 0 0 0 1017.9 1017.7 0.0
19/08:45pm 19.1 21.5 16.9 87 1.3 CALM 0 0 0 0 1017.8 1017.6 -
19/08:30pm 19.2 21.5 16.8 86 1.5 CALM 0 2 0 1 1017.8 1017.6 -
19/08:00pm 19.1 20.6 15.8 81 2.0 W 2 6 1 3 1017.6 1017.4 -
19/07:30pm 19.5 20.7 15.0 75 2.6 W 2 6 1 3 1017.5 1017.3 -
19/07:00pm 19.8 21.0 14.8 73 2.9 WSW 2 4 1 2 1017.2 1017.0 -
19/06:30pm 20.1 20.4 13.3 65 3.9 SW 4 6 2 3 1016.8 1016.6 -
19/06:00pm 20.8 20.7 12.2 58 4.8 SW 4 6 2 3 1016.6 1016.4 -
19/05:30pm 22.8 23.5 12.1 51 6.1 CALM 0 2 0 1 1016.4 1016.2 -
19/05:00pm 25.5 25.0 10.9 40 8.2 SSE 4 7 2 4 1016.2 1016.0 -
19/04:30pm 26.6 25.6 11.1 38 8.8 ESE 7 13 4 7 1015.6 1015.4 -
19/04:00pm 27.6 26.0 10.3 34 9.7 E 9 17 5 9 1015.3 1015.1 -
19/03:30pm 28.0 25.9 8.3 29 10.7 ESE 9 15 5 8 1015.2 1015.0 -
19/03:00pm 28.3 26.3 8.6 29 10.8 E 9 17 5 9 1015.1 1014.9 -
19/02:30pm 28.7 26.5 7.9 27 11.3 ESE 9 17 5 9 1015.2 1015.0 -
19/02:00pm 28.6 26.4 7.8 27 11.3 ESE 9 19 5 10 1015.2 1015.0 -
19/01:30pm 28.2 25.3 6.3 25 11.5 ESE 11 19 6 10 1015.4 1015.2 -
19/01:00pm 28.0 25.4 7.8 28 10.9 ESE 11 19 6 10 1015.7 1015.5 -
19/12:30pm 28.2 26.3 10.4 33 10.1 E 11 20 6 11 1016.0 1015.8 -
19/12:00pm 27.1 26.1 12.3 39 8.6 SE 9 19 5 10 1016.6 1016.4 -
19/11:30am 26.4 25.5 12.5 42 8.1 SE 9 15 5 8 1017.0 1016.8 0.0
19/11:00am 24.9 23.1 12.2 45 7.3 ESE 13 20 7 11 1017.3 1017.1 0.0
19/10:30am 24.0 22.7 12.6 49 6.6 ESE 11 20 6 11 1017.7 1017.5 0.0
19/10:00am 23.5 21.2 11.9 48 6.6 ESE 15 22 8 12 1017.7 1017.5 0.0
19/09:30am 23.8 22.2 11.5 46 6.9 ESE 11 20 6 11 1017.8 1017.6 0.0
19/09:00am 23.3 21.9 12.3 50 6.3 SE 11 20 6 11 1018.0 1017.8 0.0
19/08:30am 21.3 20.1 11.6 54 5.4 SE 9 17 5 9 1018.0 1017.8 0.0
19/08:00am 19.9 18.1 9.5 51 5.5 SE 9 17 5 9 1017.8 1017.6 0.0
19/07:30am 18.7 16.4 7.5 48 5.7 SE 9 17 5 9 1017.4 1017.2 0.0
19/07:00am 18.1 15.2 6.3 46 5.8 SSE 11 17 6 9 1017.3 1017.1 0.0
19/06:30am 17.9 15.6 7.6 51 5.2 SSE 9 17 5 9 1017.0 1016.8 0.0
19/06:00am 18.3 16.7 8.6 53 5.0 SSE 7 13 4 7 1016.7 1016.5 0.0
19/05:30am 18.7 16.8 7.5 48 5.7 SSE 7 15 4 8 1016.6 1016.4 0.0
19/05:00am 18.9 16.8 6.7 45 6.1 SSE 7 11 4 6 1016.4 1016.2 0.0
19/04:30am 19.3 17.4 7.4 46 6.1 SSE 7 13 4 7 1016.2 1016.0 0.0
19/04:00am 19.6 17.9 8.3 48 5.9 SSE 7 15 4 8 1016.2 1016.0 0.0
19/03:30am 20.0 18.6 9.6 51 5.5 S 7 13 4 7 1016.2 1016.0 0.0
19/03:00am 20.1 19.0 10.5 54 5.2 S 7 13 4 7 1016.4 1016.2 0.0
19/02:30am 19.8 19.6 13.7 68 3.5 S 7 13 4 7 1016.4 1016.2 0.0
19/02:00am 19.5 19.7 14.3 72 3.0 S 6 11 3 6 1016.3 1016.1 0.0
19/01:30am 18.8 19.4 15.3 80 2.1 S 6 11 3 6 1016.6 1016.4 0.0
19/01:00am 17.7 18.0 14.6 82 1.8 S 6 7 3 4 1016.9 1016.7 0.0
19/12:30am 17.6 18.0 13.7 78 2.2 S 4 6 2 3 1016.9 1016.7 0.0
19/12:00am 19.9 20.4 14.0 69 3.4 SE 4 9 2 5 1017.0 1016.8 0.0
 
Date/Time
WST
Temp
°C
App
Temp
°C
Dew
Point
°C
Rel
Hum
%
Delta-T
°C
Wind Press
QNH
hPa
Press
MSL
hPa
Rain since
9am
mm
Dir  Spd
km/h
Gust
km/h
Spd
kts
Gust
kts
18/11:30pm 19.0 20.3 14.1 73 2.8 CALM 0 2 0 1 1016.7 1016.5 0.0
18/11:00pm 20.0 20.2 14.1 69 3.4 SSW 6 9 3 5 1016.8 1016.6 0.0
18/10:30pm 18.4 18.6 14.3 77 2.4 SSW 6 9 3 5 1016.9 1016.7 0.0
18/10:00pm 18.7 19.4 14.6 77 2.4 SW 4 6 2 3 1016.9 1016.7 0.0
18/09:30pm 19.0 19.7 14.5 75 2.6 SW 4 7 2 4 1016.8 1016.6 0.0
18/09:00pm 20.0 21.0 15.4 75 2.7 SW 4 7 2 4 1016.8 1016.6 0.0
18/08:30pm 19.9 20.4 14.9 73 2.9 SSW 6 7 3 4 1016.5 1016.3 0.0
18/08:00pm 20.2 21.0 15.8 76 2.6 SSW 6 7 3 4 1016.2 1016.0 0.0
18/07:30pm 19.7 21.0 16.2 80 2.1 S 4 6 2 3 1015.8 1015.6 0.0
18/07:00pm 19.2 20.0 14.9 76 2.5 SSW 4 6 2 3 1015.4 1015.2 0.0
18/06:30pm 19.5 20.6 14.5 73 2.9 WNW 2 6 1 3 1014.9 1014.7 0.0
18/06:00pm 20.8 22.2 14.5 67 3.7 CALM 0 0 0 0 1014.7 1014.5 0.0
18/05:30pm 22.8 23.6 13.8 57 5.2 NNE 2 4 1 2 1014.4 1014.2 0.0
18/05:00pm 25.7 25.5 12.9 45 7.4 NE 6 7 3 4 1014.1 1013.9 0.0
18/04:30pm 26.2 26.6 15.3 51 6.6 E 7 11 4 6 1013.7 1013.5 0.0
18/04:00pm 26.1 26.4 14.9 50 6.7 E 7 15 4 8 1013.4 1013.2 0.0
18/03:30pm 26.6 26.3 14.4 47 7.3 E 9 15 5 8 1013.3 1013.1 0.0
18/03:00pm 26.7 25.8 13.8 45 7.7 E 11 19 6 10 1013.3 1013.1 0.0
18/02:30pm 26.9 25.9 13.3 43 8.0 E 11 20 6 11 1013.4 1013.2 0.0
18/02:00pm 27.1 25.6 13.1 42 8.2 E 13 20 7 11 1013.5 1013.3 0.0
18/01:30pm 27.3 25.7 12.9 41 8.4 E 13 20 7 11 1013.7 1013.5 0.0
18/01:00pm 26.8 25.2 12.8 42 8.2 E 13 20 7 11 1014.1 1013.9 0.0
18/12:30pm 26.9 25.5 12.2 40 8.5 ESE 11 20 6 11 1014.4 1014.2 0.0
18/12:00pm 26.5 25.1 12.2 41 8.3 ESE 11 20 6 11 1014.8 1014.6 0.0
18/11:30am 26.2 23.9 11.9 41 8.2 E 15 24 8 13 1015.2 1015.0 0.0
18/11:00am 25.7 23.2 11.1 40 8.2 ESE 15 26 8 14 1015.7 1015.5 0.0
18/10:30am 25.5 23.2 11.7 42 7.9 ESE 15 32 8 17 1016.1 1015.9 0.0
18/10:00am 25.0 22.7 11.6 43 7.6 ESE 15 30 8 16 1016.4 1016.2 0.0
18/09:30am 24.9 22.1 11.5 43 7.6 ESE 17 28 9 15 1016.6 1016.4 0.0
18/09:00am 24.0 20.9 11.7 46 7.0 ESE 19 33 10 18 1016.7 1016.5 0.0
18/08:30am 24.0 21.4 12.0 47 6.8 ESE 17 28 9 15 1016.6 1016.4 0.0

Other Formats:

Comma delimited format used in spreadsheet applications
http://www.bom.gov.au/fwo/IDW60801/IDW60801.99206.axf

JavaScript Object Notation format (JSON) in row-major order
http://www.bom.gov.au/fwo/IDW60801/IDW60801.99206.json